Time;durP1;ratioP1;P1;durP2;ratioP2;P2;SDS_P1;SDS_P2;PMS_P1;PMS_P2;Temp;Humidity;BMP_temperature;BMP_pressure;BME280_temperature;BME280_humidity;BME280_pressure;Samples;Min_cycle;Max_cycle;Signal;HPM_P1;HPM_P2
2022/04/06 00:00:26;;;;;;;;;;;8.90;97.50;;;;;;5083320;28;19955;-66
2022/04/06 00:02:52;;;;;;;;;;;8.90;97.50;;;;;;5083185;28;20184;-66
2022/04/06 00:05:17;;;;;;;;;;;8.90;97.70;;;;;;5083145;28;19965;-66
2022/04/06 00:07:43;;;;;;;;;;;8.90;97.60;;;;;;5083260;28;20115;-66
2022/04/06 00:10:10;;;;;;;;;;;8.90;97.60;;;;;;5083155;28;19922;-66
2022/04/06 00:12:36;;;;;;;;;;;9.00;97.70;;;;;;5082639;28;19908;-66
2022/04/06 00:15:03;;;;;;;;;;;9.00;97.50;;;;;;5083173;28;19940;-67
2022/04/06 00:17:29;;;;;;;;;;;9.10;97.50;;;;;;5083199;28;19915;-67
2022/04/06 00:19:54;;;;;;;;;;;9.00;97.40;;;;;;5083174;28;19979;-67
2022/04/06 00:22:20;;;;;;;;;;;9.00;97.50;;;;;;5082705;28;19908;-66
2022/04/06 00:24:47;;;;;;;;;;;8.90;97.60;;;;;;5083039;28;19920;-67
2022/04/06 00:27:13;;;;;;;;;;;9.00;97.60;;;;;;5082561;28;19909;-66
2022/04/06 00:29:39;;;;;;;;;;;9.00;97.50;;;;;;5082937;28;19946;-66
2022/04/06 00:32:05;;;;;;;;;;;9.10;97.80;;;;;;5082525;28;19909;-66
2022/04/06 00:37:15;;;;;;;;;;;9.00;97.70;;;;;;5082691;28;19931;-67
2022/04/06 00:39:40;;;;;;;;;;;9.00;97.80;;;;;;5082691;28;20278;-66
2022/04/06 00:42:06;;;;;;;;;;;9.00;97.70;;;;;;5081499;28;19927;-66
2022/04/06 00:44:35;;;;;;;;;;;9.00;97.60;;;;;;5082595;28;19966;-67
2022/04/06 00:47:03;;;;;;;;;;;9.00;97.70;;;;;;5082675;28;19916;-67
2022/04/06 00:49:28;;;;;;;;;;;9.10;97.70;;;;;;5082484;28;20140;-66
2022/04/06 00:51:54;;;;;;;;;;;9.10;97.70;;;;;;5082393;28;19954;-67
2022/04/06 00:54:21;;;;;;;;;;;9.10;97.60;;;;;;5081357;28;19958;-66
2022/04/06 00:56:46;;;;;;;;;;;9.10;97.70;;;;;;5080923;28;20015;-66
2022/04/06 00:59:12;;;;;;;;;;;9.10;97.70;;;;;;5081980;28;19980;-66
2022/04/06 01:01:38;;;;;;;;;;;9.10;97.70;;;;;;5082312;28;19908;-66
2022/04/06 01:04:04;;;;;;;;;;;9.20;97.60;;;;;;5082426;28;19958;-67
2022/04/06 01:06:29;;;;;;;;;;;9.10;97.70;;;;;;5082481;28;20092;-67
2022/04/06 01:08:55;;;;;;;;;;;9.20;97.70;;;;;;5081085;28;19916;-66
2022/04/06 01:11:21;;;;;;;;;;;9.20;97.80;;;;;;5081902;28;20161;-66
2022/04/06 01:13:47;;;;;;;;;;;9.20;97.80;;;;;;5082417;28;19908;-67
2022/04/06 01:16:13;;;;;;;;;;;9.20;97.70;;;;;;5082343;28;20106;-67
2022/04/06 01:18:40;;;;;;;;;;;9.20;97.70;;;;;;5082331;28;19916;-66
2022/04/06 01:21:06;;;;;;;;;;;9.20;97.90;;;;;;5080612;28;19916;-67
2022/04/06 01:23:32;;;;;;;;;;;9.20;98.10;;;;;;5082214;28;20223;-66
2022/04/06 01:25:57;;;;;;;;;;;9.20;98.20;;;;;;5081694;28;19988;-66
2022/04/06 01:28:24;;;;;;;;;;;9.20;98.30;;;;;;5081909;28;19917;-67
2022/04/06 01:30:50;;;;;;;;;;;9.20;98.30;;;;;;5081962;28;19946;-67
2022/04/06 01:33:15;;;;;;;;;;;9.20;98.50;;;;;;5082338;28;19912;-67
2022/04/06 01:35:42;;;;;;;;;;;9.20;98.50;;;;;;5082199;28;19917;-67
2022/04/06 01:38:08;;;;;;;;;;;9.20;98.70;;;;;;5113732;22;19939;-67
2022/04/06 01:40:34;;;;;;;;;;;9.10;98.60;;;;;;5101939;28;19916;-68
2022/04/06 01:43:00;;;;;;;;;;;9.20;98.70;;;;;;5107996;28;19911;-68
2022/04/06 01:45:26;;;;;;;;;;;9.20;98.60;;;;;;5103267;28;19912;-67
2022/04/06 01:47:51;;;;;;;;;;;9.20;98.60;;;;;;5102000;28;19935;-67
2022/04/06 01:53:03;;;;;;;;;;;9.20;98.80;;;;;;5101976;28;19914;-67
2022/04/06 01:55:29;;;;;;;;;;;9.20;98.90;;;;;;5102254;28;19939;-67
2022/04/06 01:57:54;;;;;;;;;;;9.10;99.10;;;;;;5114085;28;20107;-67
2022/04/06 02:00:20;;;;;;;;;;;9.10;99.20;;;;;;5122438;28;20171;-67
2022/04/06 02:02:48;;;;;;;;;;;9.10;99.20;;;;;;5108621;28;19974;-67
2022/04/06 02:05:15;;;;;;;;;;;9.10;99.10;;;;;;5100749;28;20006;-68
2022/04/06 02:07:42;;;;;;;;;;;9.10;99.20;;;;;;5101764;28;20219;-68
2022/04/06 02:10:08;;;;;;;;;;;9.20;99.20;;;;;;5104940;28;19909;-68
2022/04/06 02:12:34;;;;;;;;;;;9.10;99.30;;;;;;5105453;28;19923;-68
2022/04/06 02:15:00;;;;;;;;;;;9.10;99.40;;;;;;5105585;28;19908;-68
2022/04/06 02:17:27;;;;;;;;;;;9.10;99.50;;;;;;5105439;28;19920;-68
2022/04/06 02:19:53;;;;;;;;;;;9.10;99.60;;;;;;5105493;28;20203;-68
2022/04/06 02:22:19;;;;;;;;;;;9.10;99.60;;;;;;5105066;28;19938;-68
2022/04/06 02:24:45;;;;;;;;;;;9.10;99.60;;;;;;5105357;28;19987;-68
2022/04/06 02:27:10;;;;;;;;;;;9.10;99.60;;;;;;5105322;28;19915;-68
2022/04/06 02:29:37;;;;;;;;;;;9.00;99.70;;;;;;5105364;28;19915;-68
2022/04/06 02:32:04;;;;;;;;;;;9.00;99.80;;;;;;5105369;28;19908;-68
2022/04/06 02:34:30;;;;;;;;;;;9.10;99.70;;;;;;5113225;28;19908;-68
2022/04/06 02:36:55;;;;;;;;;;;9.00;99.70;;;;;;5104653;28;19962;-68
2022/04/06 02:39:21;;;;;;;;;;;9.00;99.80;;;;;;5104919;28;19943;-68
2022/04/06 02:41:47;;;;;;;;;;;9.00;99.80;;;;;;5086753;28;20155;-68
2022/04/06 02:44:12;;;;;;;;;;;9.00;99.80;;;;;;5105027;28;19981;-68
2022/04/06 02:46:38;;;;;;;;;;;9.00;99.90;;;;;;5104929;28;19908;-68
2022/04/06 02:49:04;;;;;;;;;;;9.00;99.80;;;;;;5104958;28;19920;-68
2022/04/06 02:51:30;;;;;;;;;;;9.00;99.90;;;;;;5104619;28;19915;-68
2022/04/06 02:53:55;;;;;;;;;;;9.00;99.90;;;;;;5104684;28;19908;-67
2022/04/06 02:56:21;;;;;;;;;;;9.00;99.90;;;;;;5104795;28;20172;-69
2022/04/06 02:58:47;;;;;;;;;;;9.00;99.90;;;;;;5104760;28;19912;-68
2022/04/06 03:01:12;;;;;;;;;;;9.00;99.90;;;;;;5086451;28;19971;-68
2022/04/06 03:03:38;;;;;;;;;;;8.90;99.90;;;;;;5104337;28;20141;-67
2022/04/06 03:06:05;;;;;;;;;;;8.90;99.90;;;;;;5104744;28;20264;-69
2022/04/06 03:08:30;;;;;;;;;;;8.90;99.90;;;;;;5104150;28;19946;-69
2022/04/06 03:10:57;;;;;;;;;;;8.90;99.90;;;;;;5104408;28;20120;-67
2022/04/06 03:13:23;;;;;;;;;;;8.90;99.90;;;;;;5104505;28;20106;-68
2022/04/06 03:15:48;;;;;;;;;;;8.80;99.90;;;;;;5104576;28;19916;-67
2022/04/06 03:18:14;;;;;;;;;;;8.80;99.90;;;;;;5104413;28;19923;-68
2022/04/06 03:20:40;;;;;;;;;;;8.80;99.90;;;;;;5103350;28;20219;-68
2022/04/06 03:23:05;;;;;;;;;;;8.80;99.90;;;;;;5104245;28;19912;-68
2022/04/06 03:25:31;;;;;;;;;;;8.80;99.90;;;;;;5119883;28;19949;-68
2022/04/06 03:27:57;;;;;;;;;;;8.80;99.90;;;;;;5104239;28;19908;-68
2022/04/06 03:30:23;;;;;;;;;;;8.80;99.90;;;;;;5104063;28;19908;-68
2022/04/06 03:32:49;;;;;;;;;;;8.80;99.90;;;;;;5108145;28;20207;-68
2022/04/06 03:35:14;;;;;;;;;;;8.80;99.90;;;;;;5105180;28;19919;-68
2022/04/06 03:37:40;;;;;;;;;;;8.80;99.90;;;;;;5103393;28;20249;-68
2022/04/06 03:40:07;;;;;;;;;;;8.80;99.90;;;;;;5104276;28;19945;-67
2022/04/06 03:42:33;;;;;;;;;;;8.80;99.90;;;;;;5102885;28;20199;-67
2022/04/06 03:44:59;;;;;;;;;;;8.80;99.90;;;;;;5103706;28;19939;-68
2022/04/06 03:47:31;;;;;;;;;;;8.80;99.90;;;;;;5103821;28;20107;-68
2022/04/06 03:49:58;;;;;;;;;;;8.80;99.90;;;;;;5085618;28;20245;-68
2022/04/06 03:52:25;;;;;;;;;;;8.80;99.90;;;;;;5103197;28;19935;-68
2022/04/06 03:54:51;;;;;;;;;;;8.80;99.90;;;;;;5103679;28;20219;-68
2022/04/06 03:57:17;;;;;;;;;;;8.80;99.90;;;;;;5103459;28;19975;-68
2022/04/06 03:59:43;;;;;;;;;;;8.80;99.90;;;;;;5103286;28;19908;-68
2022/04/06 04:02:08;;;;;;;;;;;8.70;99.90;;;;;;5102951;28;19916;-68
2022/04/06 04:04:34;;;;;;;;;;;8.80;99.90;;;;;;5103204;28;19924;-68
2022/04/06 04:07:01;;;;;;;;;;;8.80;99.90;;;;;;5103060;28;19930;-68
2022/04/06 04:09:30;;;;;;;;;;;8.70;99.90;;;;;;5118436;28;19908;-68
2022/04/06 04:11:56;;;;;;;;;;;8.80;99.90;;;;;;5102929;28;20218;-67
2022/04/06 04:14:23;;;;;;;;;;;8.70;99.90;;;;;;5103194;28;20278;-67
2022/04/06 04:16:49;;;;;;;;;;;8.70;99.90;;;;;;5103058;28;20003;-68
2022/04/06 04:19:16;;;;;;;;;;;8.70;99.90;;;;;;5102974;28;19908;-67
2022/04/06 04:21:42;;;;;;;;;;;8.80;99.90;;;;;;5102792;28;19908;-67
2022/04/06 04:24:08;;;;;;;;;;;8.70;99.90;;;;;;5102855;28;19983;-67
2022/04/06 04:26:34;;;;;;;;;;;8.80;99.90;;;;;;5103100;28;19920;-68
2022/04/06 04:29:00;;;;;;;;;;;8.70;99.90;;;;;;5102956;28;19969;-68
2022/04/06 04:31:26;;;;;;;;;;;8.70;99.90;;;;;;5102692;28;19944;-66
2022/04/06 04:33:52;;;;;;;;;;;8.70;99.90;;;;;;5102888;28;19943;-67
2022/04/06 04:36:17;;;;;;;;;;;8.80;99.90;;;;;;5111224;28;20273;-67
2022/04/06 04:38:43;;;;;;;;;;;8.70;99.90;;;;;;5122805;28;20207;-68
2022/04/06 04:41:09;;;;;;;;;;;8.80;99.90;;;;;;5122969;28;20123;-67
2022/04/06 04:43:35;;;;;;;;;;;8.70;99.90;;;;;;5104616;28;19908;-67
2022/04/06 04:46:01;;;;;;;;;;;8.80;99.90;;;;;;5102507;28;19970;-68
2022/04/06 04:48:26;;;;;;;;;;;8.80;99.90;;;;;;5102700;28;19908;-67
2022/04/06 04:50:52;;;;;;;;;;;8.80;99.90;;;;;;5102383;28;20142;-67
2022/04/06 04:53:18;;;;;;;;;;;8.80;99.90;;;;;;5102700;28;19916;-67
2022/04/06 04:55:43;;;;;;;;;;;8.80;99.90;;;;;;5102453;28;19938;-68
2022/04/06 04:58:09;;;;;;;;;;;8.80;99.90;;;;;;5084266;28;19931;-68
2022/04/06 05:00:35;;;;;;;;;;;8.80;99.90;;;;;;5116326;28;20118;-67
2022/04/06 05:03:02;;;;;;;;;;;8.80;99.90;;;;;;5122782;28;20020;-69
2022/04/06 05:05:28;;;;;;;;;;;8.90;99.90;;;;;;5122794;28;19990;-69
2022/04/06 05:07:57;;;;;;;;;;;8.90;99.90;;;;;;5122802;28;20114;-69
2022/04/06 05:10:23;;;;;;;;;;;8.90;99.90;;;;;;5122895;28;19908;-69
2022/04/06 05:12:48;;;;;;;;;;;8.90;99.90;;;;;;5111725;28;20242;-68
2022/04/06 05:15:14;;;;;;;;;;;8.90;99.80;;;;;;5102435;28;19923;-69
2022/04/06 05:17:40;;;;;;;;;;;8.90;99.90;;;;;;5102259;28;19908;-70
2022/04/06 05:20:07;;;;;;;;;;;9.00;99.90;;;;;;5102404;28;20139;-68
2022/04/06 05:22:33;;;;;;;;;;;8.90;99.70;;;;;;5101859;28;19929;-69
2022/04/06 05:25:00;;;;;;;;;;;9.00;99.60;;;;;;5102288;28;19993;-69
2022/04/06 05:27:26;;;;;;;;;;;9.00;99.50;;;;;;5101990;28;20230;-70
2022/04/06 05:29:51;;;;;;;;;;;9.00;99.50;;;;;;5102161;28;19915;-68
2022/04/06 05:32:17;;;;;;;;;;;9.00;99.40;;;;;;5103163;28;19947;-68
2022/04/06 05:34:43;;;;;;;;;;;9.10;99.50;;;;;;5112932;28;19912;-69
2022/04/06 05:37:08;;;;;;;;;;;9.10;99.40;;;;;;5103952;28;20211;-70
2022/04/06 05:39:34;;;;;;;;;;;9.00;99.40;;;;;;5101841;28;19916;-70
2022/04/06 05:42:00;;;;;;;;;;;9.10;99.30;;;;;;5104933;28;19912;-71
2022/04/06 05:44:25;;;;;;;;;;;9.20;99.30;;;;;;5106641;28;19908;-68
2022/04/06 05:46:51;;;;;;;;;;;9.20;99.20;;;;;;5105765;28;19908;-70
2022/04/06 05:49:17;;;;;;;;;;;9.10;99.20;;;;;;5105925;28;19920;-70
2022/04/06 05:51:44;;;;;;;;;;;9.10;99.30;;;;;;5105661;28;20268;-70
2022/04/06 05:54:10;;;;;;;;;;;9.10;99.50;;;;;;5112994;28;19919;-70
2022/04/06 05:56:36;;;;;;;;;;;9.10;99.60;;;;;;5113133;28;19999;-70
2022/04/06 05:59:01;;;;;;;;;;;9.10;99.80;;;;;;5105400;28;20230;-70
2022/04/06 06:01:27;;;;;;;;;;;9.20;99.90;;;;;;5105196;28;19939;-71
2022/04/06 06:03:53;;;;;;;;;;;9.20;99.80;;;;;;5105376;28;19987;-69
2022/04/06 06:06:18;;;;;;;;;;;9.20;99.90;;;;;;5108904;28;20242;-71
2022/04/06 06:08:44;;;;;;;;;;;9.20;99.80;;;;;;5105061;28;19920;-70
2022/04/06 06:11:10;;;;;;;;;;;9.20;99.80;;;;;;5105054;28;19908;-67
2022/04/06 06:13:36;;;;;;;;;;;9.30;99.50;;;;;;5105138;28;20013;-70
2022/04/06 06:16:04;;;;;;;;;;;9.30;99.50;;;;;;5105503;28;19909;-70
2022/04/06 06:18:29;;;;;;;;;;;9.30;99.50;;;;;;5087138;28;20140;-70
2022/04/06 06:20:57;;;;;;;;;;;9.30;99.10;;;;;;5086382;28;19915;-70
2022/04/06 06:23:22;;;;;;;;;;;9.40;98.90;;;;;;5104281;28;20256;-70
2022/04/06 06:25:48;;;;;;;;;;;9.40;98.90;;;;;;5105491;28;19916;-69
2022/04/06 06:28:14;;;;;;;;;;;9.40;99.00;;;;;;5104885;28;19961;-68
2022/04/06 06:30:40;;;;;;;;;;;9.50;98.80;;;;;;5104283;28;20104;-69
2022/04/06 06:33:05;;;;;;;;;;;9.60;98.60;;;;;;5105005;28;19908;-67
2022/04/06 06:35:31;;;;;;;;;;;9.60;98.60;;;;;;5106310;28;19908;-69
2022/04/06 06:37:56;;;;;;;;;;;9.60;98.60;;;;;;5088136;28;20254;-64
2022/04/06 06:40:24;;;;;;;;;;;9.60;98.60;;;;;;5105274;28;19916;-63
2022/04/06 06:42:50;;;;;;;;;;;9.60;98.50;;;;;;5103923;28;19943;-67
2022/04/06 06:45:15;;;;;;;;;;;9.60;98.70;;;;;;5104903;28;19912;-68
2022/04/06 06:47:41;;;;;;;;;;;9.50;98.80;;;;;;5104967;28;19908;-67
2022/04/06 06:50:11;;;;;;;;;;;9.50;98.90;;;;;;5104752;28;20360;-67
2022/04/06 06:52:36;;;;;;;;;;;9.40;99.30;;;;;;5104747;28;19908;-67
2022/04/06 06:55:04;;;;;;;;;;;9.50;99.20;;;;;;5103817;28;19975;-67
2022/04/06 06:57:29;;;;;;;;;;;9.50;99.10;;;;;;5104278;28;19982;-68
2022/04/06 06:59:55;;;;;;;;;;;9.50;99.00;;;;;;5104727;28;19916;-67
2022/04/06 07:02:21;;;;;;;;;;;9.60;98.90;;;;;;5104540;28;20199;-67
2022/04/06 07:04:47;;;;;;;;;;;9.60;98.90;;;;;;5104638;28;20157;-67
2022/04/06 07:07:12;;;;;;;;;;;9.60;98.80;;;;;;5104690;28;19916;-67
2022/04/06 07:09:38;;;;;;;;;;;9.60;98.70;;;;;;5104724;28;20268;-67
2022/04/06 07:12:04;;;;;;;;;;;9.60;98.70;;;;;;5104298;28;19953;-67
2022/04/06 07:14:32;;;;;;;;;;;9.60;98.50;;;;;;5101705;28;19908;-68
2022/04/06 07:16:58;;;;;;;;;;;9.60;98.70;;;;;;5105122;28;19954;-67
2022/04/06 07:19:24;;;;;;;;;;;9.50;98.90;;;;;;5106518;28;19991;-67
2022/04/06 07:21:50;;;;;;;;;;;9.60;98.90;;;;;;5104116;28;19912;-67
2022/04/06 07:24:16;;;;;;;;;;;9.60;98.80;;;;;;5104369;28;19908;-67
2022/04/06 07:26:42;;;;;;;;;;;9.70;98.80;;;;;;5104172;28;19965;-67
2022/04/06 07:29:11;;;;;;;;;;;9.70;98.10;;;;;;5103470;28;20264;-67
2022/04/06 07:31:40;;;;;;;;;;;9.80;98.10;;;;;;5102948;28;19908;-68
2022/04/06 07:34:06;;;;;;;;;;;9.90;97.80;;;;;;5102991;28;19915;-67
2022/04/06 07:36:35;;;;;;;;;;;10.00;97.60;;;;;;5103992;28;19908;-67
2022/04/06 07:39:04;;;;;;;;;;;10.10;97.40;;;;;;5103779;28;19912;-67
2022/04/06 07:41:30;;;;;;;;;;;10.20;97.30;;;;;;5103163;28;19944;-68
2022/04/06 07:43:56;;;;;;;;;;;10.20;97.30;;;;;;5102979;28;20195;-68
2022/04/06 07:46:22;;;;;;;;;;;10.20;97.20;;;;;;5103749;28;19912;-68
2022/04/06 07:48:48;;;;;;;;;;;10.30;97.00;;;;;;5103718;28;19932;-68
2022/04/06 07:51:14;;;;;;;;;;;10.30;97.00;;;;;;5103494;28;19916;-67
2022/04/06 07:53:40;;;;;;;;;;;10.40;96.90;;;;;;5103472;28;19908;-67
2022/04/06 07:56:06;;;;;;;;;;;10.40;96.80;;;;;;5103343;28;19916;-67
2022/04/06 07:58:35;;;;;;;;;;;10.30;96.80;;;;;;5103750;28;19908;-67
2022/04/06 08:01:02;;;;;;;;;;;10.20;97.00;;;;;;5085348;28;19977;-66
2022/04/06 08:03:29;;;;;;;;;;;10.20;97.10;;;;;;5103756;28;19908;-67
2022/04/06 08:05:56;;;;;;;;;;;10.20;97.00;;;;;;5103596;28;20242;-70
2022/04/06 08:08:22;;;;;;;;;;;10.20;97.20;;;;;;5102799;28;19908;-70
2022/04/06 08:10:47;;;;;;;;;;;10.20;97.00;;;;;;5103070;28;19940;-70
2022/04/06 08:13:13;;;;;;;;;;;10.30;96.90;;;;;;5102332;28;20162;-70
2022/04/06 08:15:39;;;;;;;;;;;10.40;96.80;;;;;;5103188;28;19958;-68
2022/04/06 08:18:06;;;;;;;;;;;10.40;97.00;;;;;;5102767;28;20150;-67
2022/04/06 08:20:31;;;;;;;;;;;10.40;97.30;;;;;;5102683;28;19946;-67
2022/04/06 08:22:57;;;;;;;;;;;10.30;97.60;;;;;;5103156;28;19911;-69
2022/04/06 08:25:26;;;;;;;;;;;10.30;97.70;;;;;;5103035;28;20330;-70
2022/04/06 08:27:52;;;;;;;;;;;10.40;97.80;;;;;;5102866;28;20202;-68
2022/04/06 08:30:27;;;;;;;;;;;10.40;97.90;;;;;;5103344;28;19939;-68
2022/04/06 08:32:58;;;;;;;;;;;10.50;97.40;;;;;;5082380;28;19978;-69
2022/04/06 08:35:25;;;;;;;;;;;10.70;97.20;;;;;;5082899;28;20158;-69
2022/04/06 08:37:54;;;;;;;;;;;10.70;97.10;;;;;;5082554;28;19970;-70
2022/04/06 08:40:21;;;;;;;;;;;10.90;96.90;;;;;;5082670;28;19908;-68
2022/04/06 08:42:48;;;;;;;;;;;11.20;96.50;;;;;;5089497;28;19916;-68
2022/04/06 08:45:16;;;;;;;;;;;11.40;95.70;;;;;;5084883;28;20185;-68
2022/04/06 08:47:41;;;;;;;;;;;11.50;95.20;;;;;;5102896;28;19909;-68
2022/04/06 08:50:07;;;;;;;;;;;11.50;94.30;;;;;;5102724;28;19915;-69
2022/04/06 08:52:33;;;;;;;;;;;11.40;94.70;;;;;;5102665;28;19912;-69
2022/04/06 08:54:59;;;;;;;;;;;11.40;94.90;;;;;;5102731;28;20223;-69
2022/04/06 08:57:26;;;;;;;;;;;11.50;94.60;;;;;;5084205;28;19915;-69
2022/04/06 08:59:52;;;;;;;;;;;11.50;94.40;;;;;;5084954;28;19907;-68
2022/04/06 09:02:21;;;;;;;;;;;11.50;94.20;;;;;;5102299;28;19946;-69
2022/04/06 09:04:54;;;;;;;;;;;11.50;94.00;;;;;;5102511;28;19912;-69
2022/04/06 09:07:21;;;;;;;;;;;11.50;93.50;;;;;;5102182;28;19915;-68
2022/04/06 09:09:54;;;;;;;;;;;11.50;93.80;;;;;;5102354;28;19908;-68
2022/04/06 09:12:21;;;;;;;;;;;11.80;93.10;;;;;;5102079;28;19908;-69
2022/04/06 09:14:47;;;;;;;;;;;11.90;92.50;;;;;;5102582;28;19915;-69
2022/04/06 09:17:17;;;;;;;;;;;12.00;92.40;;;;;;5084382;28;19954;-69
2022/04/06 09:19:46;;;;;;;;;;;12.00;90.40;;;;;;5087266;28;19908;-68
2022/04/06 09:22:12;;;;;;;;;;;11.90;90.00;;;;;;5088739;28;19953;-69
2022/04/06 09:24:37;;;;;;;;;;;11.80;90.10;;;;;;5126984;28;20156;-69
2022/04/06 09:27:03;;;;;;;;;;;11.90;88.10;;;;;;5126858;28;19974;-68
2022/04/06 09:29:30;;;;;;;;;;;12.00;88.50;;;;;;5108637;28;19987;-69
2022/04/06 09:32:07;;;;;;;;;;;12.10;88.50;;;;;;5126575;28;20144;-69
2022/04/06 09:34:34;;;;;;;;;;;12.10;88.20;;;;;;5110181;28;19994;-68
2022/04/06 09:37:23;;;;;;;;;;;12.20;87.90;;;;;;5126718;28;19915;-69
2022/04/06 09:39:49;;;;;;;;;;;12.40;86.90;;;;;;5126576;28;20214;-68
2022/04/06 09:42:25;;;;;;;;;;;12.60;86.90;;;;;;5122347;28;19916;-68
2022/04/06 09:47:39;;;;;;;;;;;13.10;85.00;;;;;;5106228;28;19923;-68
2022/04/06 09:50:24;;;;;;;;;;;13.30;82.10;;;;;;5106072;28;19943;-69
2022/04/06 09:52:51;;;;;;;;;;;13.40;80.20;;;;;;5109578;28;19923;-68
2022/04/06 09:55:20;;;;;;;;;;;13.60;78.60;;;;;;5126569;28;19907;-68
2022/04/06 09:57:49;;;;;;;;;;;13.60;78.80;;;;;;5126131;28;20130;-68
2022/04/06 10:00:16;;;;;;;;;;;13.80;77.50;;;;;;5108429;28;19930;-68
2022/04/06 10:02:44;;;;;;;;;;;13.70;75.60;;;;;;5126048;28;19908;-69
2022/04/06 10:05:11;;;;;;;;;;;13.50;76.80;;;;;;5126198;28;19965;-69
2022/04/06 10:07:38;;;;;;;;;;;13.50;77.40;;;;;;5126297;28;19935;-68
2022/04/06 10:10:04;;;;;;;;;;;13.40;77.50;;;;;;5120843;28;19974;-69
2022/04/06 10:12:30;;;;;;;;;;;13.40;77.20;;;;;;5096965;28;20199;-68
2022/04/06 10:14:56;;;;;;;;;;;13.30;76.90;;;;;;5070865;28;19908;-68
2022/04/06 10:17:22;;;;;;;;;;;13.30;77.40;;;;;;5105572;28;19989;-68
2022/04/06 10:19:50;;;;;;;;;;;13.30;77.20;;;;;;5105431;28;19912;-68
2022/04/06 10:22:19;;;;;;;;;;;13.20;77.70;;;;;;5087397;28;19915;-69
2022/04/06 10:24:54;;;;;;;;;;;13.20;78.90;;;;;;5070774;28;19920;-69
2022/04/06 10:27:25;;;;;;;;;;;13.30;77.50;;;;;;5066988;28;20207;-68
2022/04/06 10:30:05;;;;;;;;;;;13.30;78.30;;;;;;5067133;28;19909;-68
2022/04/06 10:32:38;;;;;;;;;;;13.40;78.10;;;;;;5084676;28;19908;-68
2022/04/06 10:35:26;;;;;;;;;;;13.30;78.40;;;;;;5084995;28;20159;-70
2022/04/06 10:38:00;;;;;;;;;;;13.50;77.80;;;;;;5098207;28;19912;-70
2022/04/06 10:40:28;;;;;;;;;;;13.50;77.50;;;;;;5105220;28;19915;-70
2022/04/06 10:42:54;;;;;;;;;;;13.60;77.20;;;;;;5103934;28;19987;-70
2022/04/06 10:45:27;;;;;;;;;;;13.70;77.10;;;;;;5087167;28;20223;-68
2022/04/06 10:48:11;;;;;;;;;;;13.70;76.40;;;;;;5104896;28;19916;-68
2022/04/06 10:50:37;;;;;;;;;;;14.10;75.60;;;;;;5104774;28;19931;-68
2022/04/06 10:53:18;;;;;;;;;;;14.10;74.90;;;;;;5104884;28;20103;-69
2022/04/06 10:56:07;;;;;;;;;;;14.20;74.60;;;;;;5108884;28;19919;-71
2022/04/06 10:59:03;;;;;;;;;;;14.40;75.20;;;;;;5125052;28;19919;-70
2022/04/06 11:01:29;;;;;;;;;;;14.50;74.90;;;;;;5106498;28;19946;-70
2022/04/06 11:03:58;;;;;;;;;;;14.30;73.20;;;;;;5125134;28;20219;-70
2022/04/06 11:06:44;;;;;;;;;;;14.30;73.30;;;;;;5124985;28;19927;-69
2022/04/06 11:12:20;;;;;;;;;;;14.00;76.20;;;;;;5122366;28;19953;-67
2022/04/06 11:14:47;;;;;;;;;;;14.00;76.40;;;;;;5104414;28;19935;-67
2022/04/06 11:17:34;;;;;;;;;;;14.10;76.20;;;;;;5104427;28;19908;-67
2022/04/06 11:20:11;;;;;;;;;;;14.20;75.90;;;;;;5104411;28;19915;-67
2022/04/06 11:22:38;;;;;;;;;;;14.00;75.60;;;;;;5103909;28;19908;-67
2022/04/06 11:25:08;;;;;;;;;;;14.00;74.90;;;;;;5104253;28;19994;-68
2022/04/06 11:27:36;;;;;;;;;;;14.00;74.80;;;;;;5086221;28;19916;-68
2022/04/06 11:30:05;;;;;;;;;;;14.10;73.90;;;;;;5104260;28;20261;-67
2022/04/06 11:32:31;;;;;;;;;;;14.20;72.70;;;;;;5109229;28;19908;-67
2022/04/06 11:35:01;;;;;;;;;;;14.20;72.60;;;;;;5124406;28;20094;-67
2022/04/06 11:37:27;;;;;;;;;;;14.00;72.90;;;;;;5124275;28;19982;-67
2022/04/06 11:39:57;;;;;;;;;;;14.20;73.00;;;;;;5125122;28;19931;-67
2022/04/06 11:42:23;;;;;;;;;;;14.20;72.10;;;;;;5119068;28;19947;-67
2022/04/06 11:44:49;;;;;;;;;;;14.20;70.80;;;;;;5103675;28;19943;-67
2022/04/06 11:47:14;;;;;;;;;;;14.30;73.10;;;;;;5103857;28;19908;-67
2022/04/06 11:49:40;;;;;;;;;;;14.50;71.70;;;;;;5104018;28;19979;-67
2022/04/06 11:52:07;;;;;;;;;;;14.60;71.90;;;;;;5085692;28;20084;-67
2022/04/06 11:54:32;;;;;;;;;;;14.60;70.80;;;;;;5103762;28;19908;-67
2022/04/06 11:56:58;;;;;;;;;;;14.50;71.30;;;;;;5103844;28;19915;-67
2022/04/06 11:59:24;;;;;;;;;;;14.40;71.20;;;;;;5103527;28;19951;-67
2022/04/06 12:01:50;;;;;;;;;;;14.30;73.00;;;;;;5085276;28;19908;-67
2022/04/06 12:04:25;;;;;;;;;;;14.30;73.90;;;;;;5103392;28;19954;-67
2022/04/06 12:06:52;;;;;;;;;;;15.00;71.20;;;;;;5116900;28;19982;-68
2022/04/06 12:09:18;;;;;;;;;;;15.20;68.50;;;;;;5123938;28;20156;-67
2022/04/06 12:11:48;;;;;;;;;;;15.20;68.90;;;;;;5123703;28;19916;-67
2022/04/06 12:14:13;;;;;;;;;;;15.00;68.10;;;;;;5071334;28;19953;-67
2022/04/06 12:16:40;;;;;;;;;;;15.10;67.40;;;;;;5085369;28;19915;-67
2022/04/06 12:19:12;;;;;;;;;;;14.70;68.60;;;;;;5103274;28;19908;-67
2022/04/06 12:21:44;;;;;;;;;;;14.50;69.30;;;;;;5103064;28;19908;-67
2022/04/06 12:24:11;;;;;;;;;;;14.60;69.30;;;;;;5085222;28;20111;-67
2022/04/06 12:26:40;;;;;;;;;;;15.00;68.70;;;;;;5085041;28;20279;-66
2022/04/06 12:29:07;;;;;;;;;;;14.90;68.30;;;;;;5102311;28;19979;-67
2022/04/06 12:31:36;;;;;;;;;;;14.90;67.80;;;;;;5084221;28;20139;-66
2022/04/06 12:34:02;;;;;;;;;;;15.10;67.20;;;;;;5085052;28;19931;-67
2022/04/06 12:36:30;;;;;;;;;;;15.20;66.70;;;;;;5103114;28;20195;-66
2022/04/06 12:39:01;;;;;;;;;;;15.30;66.50;;;;;;5102530;28;20133;-66
2022/04/06 12:41:31;;;;;;;;;;;15.90;64.80;;;;;;5084690;28;19975;-66
2022/04/06 12:43:56;;;;;;;;;;;15.90;64.30;;;;;;5102715;28;19942;-67
2022/04/06 12:46:37;;;;;;;;;;;16.30;63.20;;;;;;5102848;28;20111;-67
2022/04/06 12:49:35;;;;;;;;;;;16.40;62.20;;;;;;5101109;28;20279;-66
2022/04/06 12:52:19;;;;;;;;;;;16.20;61.90;;;;;;5102677;28;19908;-66
2022/04/06 12:54:49;;;;;;;;;;;16.40;60.90;;;;;;5103055;28;20207;-66
2022/04/06 12:57:27;;;;;;;;;;;16.20;61.20;;;;;;5103060;28;20253;-66
2022/04/06 12:59:53;;;;;;;;;;;16.10;62.30;;;;;;5102870;28;19908;-67
2022/04/06 13:02:25;;;;;;;;;;;16.80;60.80;;;;;;5102507;28;19919;-67
2022/04/06 13:04:52;;;;;;;;;;;17.40;58.30;;;;;;5102619;28;19939;-66
2022/04/06 13:07:18;;;;;;;;;;;17.20;57.30;;;;;;5119566;28;19939;-67
2022/04/06 13:09:58;;;;;;;;;;;17.00;58.40;;;;;;5123285;28;19923;-66
2022/04/06 13:12:25;;;;;;;;;;;17.00;58.80;;;;;;5113654;28;19915;-66
2022/04/06 13:14:55;;;;;;;;;;;17.10;58.40;;;;;;5102268;28;20138;-66
2022/04/06 13:17:20;;;;;;;;;;;17.40;57.30;;;;;;5102625;28;19908;-67
2022/04/06 13:19:47;;;;;;;;;;;17.90;56.30;;;;;;5102688;28;19930;-67
2022/04/06 13:22:13;;;;;;;;;;;18.30;55.70;;;;;;5102531;28;19912;-67
2022/04/06 13:24:39;;;;;;;;;;;19.00;53.60;;;;;;5102609;28;19915;-67
2022/04/06 13:27:05;;;;;;;;;;;19.50;51.70;;;;;;5101492;28;19916;-67
2022/04/06 13:29:30;;;;;;;;;;;19.80;50.10;;;;;;5102345;28;19922;-66
2022/04/06 13:31:56;;;;;;;;;;;19.40;51.10;;;;;;5102318;28;19915;-67
2022/04/06 13:34:22;;;;;;;;;;;18.90;52.90;;;;;;5102472;28;20227;-66
2022/04/06 13:36:48;;;;;;;;;;;18.40;53.30;;;;;;5102567;28;20195;-67
2022/04/06 13:39:14;;;;;;;;;;;18.30;54.30;;;;;;5115189;28;19915;-67
2022/04/06 13:41:41;;;;;;;;;;;18.70;54.70;;;;;;5122652;28;19907;-67
2022/04/06 13:44:07;;;;;;;;;;;20.00;50.90;;;;;;5104616;28;19915;-67
2022/04/06 13:46:33;;;;;;;;;;;19.60;50.90;;;;;;5114569;28;19920;-67
2022/04/06 13:48:58;;;;;;;;;;;18.70;52.30;;;;;;5092972;28;19923;-67
2022/04/06 13:51:24;;;;;;;;;;;17.80;54.00;;;;;;5101964;28;20123;-67
2022/04/06 13:53:50;;;;;;;;;;;17.20;56.60;;;;;;5102533;28;19908;-67
2022/04/06 13:56:16;;;;;;;;;;;18.10;54.70;;;;;;5102418;28;20111;-68
2022/04/06 13:58:41;;;;;;;;;;;18.30;53.70;;;;;;5101832;28;19908;-66
2022/04/06 14:01:07;;;;;;;;;;;17.90;54.40;;;;;;5101870;28;19915;-67
2022/04/06 14:03:33;;;;;;;;;;;17.50;55.90;;;;;;5102164;28;20156;-67
2022/04/06 14:05:59;;;;;;;;;;;17.20;56.90;;;;;;5103204;28;19943;-67
2022/04/06 14:08:27;;;;;;;;;;;16.90;57.90;;;;;;5105682;28;20251;-67
2022/04/06 14:10:53;;;;;;;;;;;16.60;58.00;;;;;;5121624;28;19908;-66
2022/04/06 14:13:21;;;;;;;;;;;16.40;59.20;;;;;;5125887;28;20244;-67
2022/04/06 14:15:47;;;;;;;;;;;16.50;58.50;;;;;;5126046;28;19917;-67
2022/04/06 14:18:13;;;;;;;;;;;16.60;57.90;;;;;;5125980;28;19915;-66
2022/04/06 14:20:39;;;;;;;;;;;16.40;58.60;;;;;;5107736;28;20206;-67
2022/04/06 14:23:05;;;;;;;;;;;16.40;59.20;;;;;;5105683;28;20092;-67
2022/04/06 14:25:31;;;;;;;;;;;16.60;58.30;;;;;;5105437;28;19912;-68
2022/04/06 14:27:57;;;;;;;;;;;19.00;53.40;;;;;;5105045;28;19916;-68
2022/04/06 14:30:23;;;;;;;;;;;21.40;47.60;;;;;;5105415;28;19912;-68
2022/04/06 14:32:49;;;;;;;;;;;21.90;45.30;;;;;;5097544;28;19957;-70
2022/04/06 14:35:17;;;;;;;;;;;21.50;44.90;;;;;;5090601;28;19916;-69